Hlavní strana
METAR-TAF:

METAR-TAF

Letiště :

Västerås, Švédsko

zeměpisná šířka: 59-35N, zeměpisná délka: 016-38E, výška: 6 m

Aktuální stav počasí

Zpráva byla vytvořena před 30 minutami, v 23:50 UTC
Jihozápadní vítr 3 kt
Teplota 2°C
Vlhkost vzduchu 93%
Tlak 1022 hPa
Viditelnost: 0350 m

METAR: ESOW 202350Z AUTO 22003KT 0350 R01/P2000N R19/P2000N NCD 02/01 Q1022

Čas: 02:20 (00:20 UTC)


TAF: chybějící

Stav a předpovědi počasí z více než 4 000 letišť (zprávy METAR a TAF).

Červené a žluté tečky na mapě představují dostupné meteorologické stanice.

Když kurzor umístíte na tečku, zobrazí se název stanice.

Pak kliknutím zobrazíte stav a předpověď počasí.

Chcete-li změnit mapu, kliknutím na zelené tlačítko se znaménkem +mapu přiblížíte, kliknutím na zelené tlačítko se znaménkem – mapu oddálíte a kliknutím na zelené šipky přejdete na sousední mapy.


METAR-TAF: